createdAt,value
2023-04-20T00:00:24.006Z,8.08
2023-04-20T00:02:50.552Z,8.10
2023-04-20T00:05:17.200Z,8.09
2023-04-20T00:07:43.613Z,8.26
2023-04-20T00:10:10.554Z,8.00
2023-04-20T00:12:37.014Z,8.20
2023-04-20T00:15:03.684Z,8.22
2023-04-20T00:17:30.122Z,7.98
2023-04-20T00:19:56.581Z,7.88
2023-04-20T00:22:23.007Z,7.75
2023-04-20T00:24:49.375Z,7.64
2023-04-20T00:27:15.751Z,7.70
2023-04-20T00:29:42.114Z,7.74
2023-04-20T00:32:08.473Z,7.61
2023-04-20T00:34:34.922Z,7.52
2023-04-20T00:37:01.589Z,7.42
2023-04-20T00:39:28.007Z,7.36
2023-04-20T00:41:54.494Z,7.50
2023-04-20T00:44:20.950Z,7.48
2023-04-20T00:46:47.384Z,7.15
2023-04-20T00:49:13.762Z,7.27
2023-04-20T00:51:40.609Z,7.38
2023-04-20T00:54:07.069Z,7.24
2023-04-20T00:56:33.504Z,7.27
2023-04-20T00:58:59.917Z,7.17
2023-04-20T01:01:26.377Z,7.21
2023-04-20T01:03:53.645Z,7.32
2023-04-20T01:06:21.132Z,7.54
2023-04-20T01:08:51.788Z,7.50
2023-04-20T01:11:18.429Z,7.56
2023-04-20T01:13:44.824Z,7.55
2023-04-20T01:16:11.981Z,7.65
2023-04-20T01:18:46.457Z,7.69
2023-04-20T01:21:14.354Z,7.63
2023-04-20T01:23:40.962Z,7.78
2023-04-20T01:26:12.758Z,7.64
2023-04-20T01:28:39.157Z,7.63
2023-04-20T01:31:06.923Z,7.60
2023-04-20T01:33:33.705Z,7.56
2023-04-20T01:36:00.178Z,7.57
2023-04-20T01:38:26.725Z,7.74
2023-04-20T01:40:54.374Z,7.67
2023-04-20T01:43:21.456Z,7.68
2023-04-20T01:45:47.873Z,7.76
2023-04-20T01:48:14.274Z,7.64
2023-04-20T01:50:40.770Z,7.71
2023-04-20T01:53:07.132Z,7.59
2023-04-20T01:55:34.039Z,7.62
2023-04-20T01:58:00.464Z,7.72
2023-04-20T02:00:26.850Z,7.74
2023-04-20T02:02:53.468Z,7.73
2023-04-20T02:05:20.152Z,7.71
2023-04-20T02:07:46.730Z,7.71
2023-04-20T02:10:13.118Z,7.76
2023-04-20T02:12:39.545Z,7.62
2023-04-20T02:15:07.083Z,7.74
2023-04-20T02:17:33.875Z,7.70
2023-04-20T02:20:00.280Z,7.79
2023-04-20T02:22:26.749Z,7.63
2023-04-20T02:24:53.168Z,7.86
2023-04-20T02:27:19.526Z,7.49
2023-04-20T02:29:46.103Z,7.72
2023-04-20T02:32:12.482Z,7.79
2023-04-20T02:34:38.874Z,7.71
2023-04-20T02:37:05.245Z,7.63
2023-04-20T02:39:31.693Z,7.76
2023-04-20T02:41:58.074Z,7.82
2023-04-20T02:44:24.519Z,7.79
2023-04-20T02:46:50.967Z,7.53
2023-04-20T02:49:17.692Z,7.47
2023-04-20T02:51:44.254Z,7.52
2023-04-20T02:54:10.777Z,7.37
2023-04-20T02:56:37.364Z,7.65
2023-04-20T02:59:04.266Z,7.45
2023-04-20T03:01:30.713Z,7.60
2023-04-20T03:03:57.265Z,7.58
2023-04-20T03:06:23.785Z,7.48
2023-04-20T03:08:50.150Z,7.51
2023-04-20T03:11:16.542Z,7.54
2023-04-20T03:13:42.946Z,7.55
2023-04-20T03:16:09.405Z,7.54
2023-04-20T03:18:35.802Z,7.55
2023-04-20T03:21:02.180Z,7.56
2023-04-20T03:23:28.548Z,7.60
2023-04-20T03:25:54.936Z,7.17
2023-04-20T03:28:21.315Z,6.93
2023-04-20T03:30:47.808Z,7.31
2023-04-20T03:33:14.233Z,7.53
2023-04-20T03:35:40.858Z,7.29
2023-04-20T03:38:07.334Z,7.27
2023-04-20T03:40:33.734Z,7.39
2023-04-20T03:43:00.124Z,7.45
2023-04-20T03:45:26.622Z,7.25
2023-04-20T03:47:53.063Z,7.13
2023-04-20T03:50:19.466Z,7.14
2023-04-20T03:52:45.954Z,6.98
2023-04-20T03:55:12.361Z,7.29
2023-04-20T03:57:38.777Z,7.31
2023-04-20T04:00:05.708Z,7.38
2023-04-20T04:02:32.210Z,7.47
2023-04-20T04:04:58.701Z,6.99
2023-04-20T04:07:25.322Z,7.17
2023-04-20T04:09:51.692Z,7.35
2023-04-20T04:12:18.129Z,7.32
2023-04-20T04:14:44.513Z,7.09
2023-04-20T04:17:11.004Z,7.33
2023-04-20T04:19:37.442Z,7.10
2023-04-20T04:22:03.820Z,7.02
2023-04-20T04:24:30.973Z,7.01
2023-04-20T04:26:58.421Z,6.99
2023-04-20T04:29:28.135Z,7.05
2023-04-20T04:31:54.651Z,7.19
2023-04-20T04:34:21.100Z,7.07
2023-04-20T04:36:48.005Z,7.11
2023-04-20T04:39:14.563Z,7.10
2023-04-20T04:41:41.091Z,7.22
2023-04-20T04:44:07.448Z,7.18
2023-04-20T04:46:33.912Z,7.06
2023-04-20T04:49:04.232Z,7.16
2023-04-20T04:51:31.614Z,6.98
2023-04-20T04:53:58.063Z,7.03
2023-04-20T04:56:24.769Z,6.91
2023-04-20T04:58:51.143Z,7.05
2023-04-20T05:01:17.697Z,6.85
2023-04-20T05:03:44.243Z,7.13
2023-04-20T05:06:10.748Z,6.98
2023-04-20T05:08:37.212Z,7.04
2023-04-20T05:11:03.609Z,6.97
2023-04-20T05:13:30.006Z,6.95
2023-04-20T05:15:56.540Z,7.17
2023-04-20T05:18:23.090Z,7.06
2023-04-20T05:20:49.762Z,7.18
2023-04-20T05:23:16.132Z,7.08
2023-04-20T05:25:43.121Z,7.13
2023-04-20T05:28:09.555Z,6.74
2023-04-20T05:30:35.997Z,6.78
2023-04-20T05:33:02.486Z,6.59
2023-04-20T05:35:29.311Z,6.37
2023-04-20T05:37:55.737Z,6.40
2023-04-20T05:40:22.278Z,6.32
2023-04-20T05:42:48.847Z,6.38
2023-04-20T05:45:15.293Z,6.40
2023-04-20T05:47:41.778Z,6.37
2023-04-20T05:50:08.936Z,6.41
2023-04-20T05:52:35.368Z,6.63
2023-04-20T05:55:01.784Z,6.40
2023-04-20T05:57:28.172Z,6.32
2023-04-20T05:59:55.861Z,6.44
2023-04-20T06:02:22.575Z,6.55
2023-04-20T06:04:49.363Z,6.31
2023-04-20T06:07:15.982Z,6.31
2023-04-20T06:09:42.359Z,6.11
2023-04-20T06:12:09.737Z,6.30
2023-04-20T06:14:36.244Z,6.19
2023-04-20T06:17:02.855Z,6.40
2023-04-20T06:19:29.214Z,6.40
2023-04-20T06:21:55.627Z,6.20
2023-04-20T06:24:22.008Z,6.26
2023-04-20T06:26:55.084Z,6.55
2023-04-20T06:29:21.490Z,6.39
2023-04-20T06:31:47.966Z,6.49
2023-04-20T06:34:14.946Z,6.52
2023-04-20T06:36:44.169Z,6.62
2023-04-20T06:39:13.368Z,6.29
2023-04-20T06:41:39.888Z,6.40
2023-04-20T06:44:06.335Z,6.48
2023-04-20T06:46:32.748Z,6.33
2023-04-20T06:48:59.284Z,6.62
2023-04-20T06:51:26.965Z,6.40
2023-04-20T06:53:54.379Z,6.44
2023-04-20T06:56:21.483Z,6.59
2023-04-20T06:58:47.916Z,6.76
2023-04-20T07:01:14.382Z,6.86
2023-04-20T07:03:41.050Z,6.92
2023-04-20T07:06:07.628Z,7.05
2023-04-20T07:08:34.046Z,6.87
2023-04-20T07:11:00.878Z,6.58
2023-04-20T07:13:30.981Z,6.77
2023-04-20T07:15:59.809Z,6.41
2023-04-20T07:18:26.206Z,6.69
2023-04-20T07:20:52.798Z,6.77
2023-04-20T07:23:20.108Z,6.80
2023-04-20T07:25:46.588Z,6.62
2023-04-20T07:28:12.963Z,6.70
2023-04-20T07:30:39.411Z,6.70
2023-04-20T07:33:05.921Z,6.63
2023-04-20T07:35:32.368Z,6.85
2023-04-20T07:37:58.749Z,6.89
2023-04-20T07:40:25.369Z,7.03
2023-04-20T07:42:52.053Z,7.03
2023-04-20T07:45:19.132Z,6.98
2023-04-20T07:47:47.278Z,6.92
2023-04-20T07:50:13.762Z,6.93
2023-04-20T07:52:40.183Z,6.62
2023-04-20T07:55:08.089Z,6.66
2023-04-20T07:57:35.149Z,6.66
2023-04-20T08:00:01.648Z,6.71
2023-04-20T08:02:28.269Z,6.76
2023-04-20T08:04:55.085Z,6.91
2023-04-20T08:07:21.642Z,6.97
2023-04-20T08:09:48.030Z,6.78
2023-04-20T08:12:14.397Z,6.66
2023-04-20T08:14:41.297Z,6.68
2023-04-20T08:17:08.160Z,6.83
2023-04-20T08:19:34.549Z,7.00
2023-04-20T08:22:01.477Z,6.96
2023-04-20T08:24:29.212Z,6.91
2023-04-20T08:26:55.786Z,6.67
2023-04-20T08:29:22.228Z,6.65
2023-04-20T08:31:50.005Z,6.68
2023-04-20T08:34:17.614Z,6.88
2023-04-20T08:36:44.061Z,7.05
2023-04-20T08:39:12.798Z,6.94
2023-04-20T08:41:39.182Z,6.77
2023-04-20T08:44:07.163Z,6.91
2023-04-20T08:46:34.508Z,7.14
2023-04-20T08:49:04.228Z,7.35
2023-04-20T08:51:33.496Z,7.23
2023-04-20T08:54:05.739Z,7.32
2023-04-20T08:56:36.981Z,7.07
2023-04-20T08:59:05.219Z,7.64
2023-04-20T09:01:35.737Z,7.84
2023-04-20T09:04:03.270Z,7.49
2023-04-20T09:06:29.908Z,7.81
2023-04-20T09:08:56.630Z,8.17
2023-04-20T09:11:32.254Z,8.25
2023-04-20T09:14:10.154Z,8.20
2023-04-20T09:16:40.027Z,8.01
2023-04-20T09:19:09.226Z,8.13
2023-04-20T09:21:36.342Z,8.61
2023-04-20T09:24:09.242Z,8.56
2023-04-20T09:26:36.372Z,8.62
2023-04-20T09:29:03.709Z,8.83
2023-04-20T09:31:30.220Z,8.93
2023-04-20T09:34:03.565Z,8.59
2023-04-20T09:36:46.669Z,9.20
2023-04-20T09:39:17.915Z,8.75
2023-04-20T09:41:44.571Z,9.43
2023-04-20T09:44:12.278Z,9.71
2023-04-20T09:46:40.452Z,9.78
2023-04-20T09:49:10.827Z,9.31
2023-04-20T09:51:38.942Z,9.46
2023-04-20T09:54:06.373Z,9.69
2023-04-20T09:56:34.563Z,9.45
2023-04-20T09:59:01.959Z,9.00
2023-04-20T10:01:34.462Z,9.19
2023-04-20T10:04:02.677Z,9.20
2023-04-20T10:06:34.351Z,9.48
2023-04-20T10:09:02.417Z,9.72
2023-04-20T10:11:48.929Z,9.51
2023-04-20T10:14:20.451Z,9.77
2023-04-20T10:16:59.217Z,9.78
2023-04-20T10:19:36.539Z,9.67
2023-04-20T10:22:03.017Z,10.21
2023-04-20T10:24:30.338Z,9.75
2023-04-20T10:26:56.978Z,9.83
2023-04-20T10:29:27.148Z,10.00
2023-04-20T10:31:54.686Z,9.85
2023-04-20T10:34:34.637Z,9.98
2023-04-20T10:37:11.352Z,10.24
2023-04-20T10:39:47.404Z,9.65
2023-04-20T10:42:15.468Z,9.89
2023-04-20T10:44:51.222Z,10.26
2023-04-20T10:47:18.478Z,10.05
2023-04-20T10:49:45.118Z,9.97
2023-04-20T10:52:11.579Z,10.02
2023-04-20T10:54:39.146Z,9.80
2023-04-20T10:57:06.615Z,9.74
2023-04-20T10:59:37.201Z,10.06
2023-04-20T11:02:07.628Z,10.40
2023-04-20T11:04:35.372Z,11.08
2023-04-20T11:07:10.146Z,10.82
2023-04-20T11:09:38.337Z,11.56
2023-04-20T11:12:11.768Z,11.69
2023-04-20T11:14:49.909Z,12.53
2023-04-20T11:17:16.426Z,12.58
2023-04-20T11:19:42.961Z,12.38
2023-04-20T11:22:09.353Z,12.30
2023-04-20T11:24:37.202Z,12.19
2023-04-20T11:27:05.054Z,12.24
2023-04-20T11:29:36.715Z,11.68
2023-04-20T11:32:06.221Z,11.41
2023-04-20T11:34:37.498Z,12.42
2023-04-20T11:37:09.580Z,12.93
2023-04-20T11:39:36.375Z,13.20
2023-04-20T11:42:03.336Z,13.68
2023-04-20T11:44:29.912Z,14.46
2023-04-20T11:46:59.745Z,14.18
2023-04-20T11:49:28.594Z,14.56
2023-04-20T11:51:55.153Z,14.84
2023-04-20T11:54:25.162Z,14.63
2023-04-20T11:56:51.610Z,14.92
2023-04-20T11:59:20.119Z,14.95
2023-04-20T12:01:47.656Z,15.22
2023-04-20T12:04:15.025Z,14.69
2023-04-20T12:06:42.377Z,14.02
2023-04-20T12:09:08.850Z,14.28
2023-04-20T12:11:35.214Z,14.24
2023-04-20T12:14:01.702Z,13.70
2023-04-20T12:16:28.181Z,13.26
2023-04-20T12:18:54.722Z,14.48
2023-04-20T12:21:21.255Z,13.96
2023-04-20T12:23:49.526Z,13.23
2023-04-20T12:26:16.613Z,12.66
2023-04-20T12:28:45.052Z,12.59
2023-04-20T12:31:11.530Z,13.18
2023-04-20T12:33:38.089Z,13.70
2023-04-20T12:36:05.147Z,13.88
2023-04-20T12:38:31.526Z,13.50
2023-04-20T12:40:57.979Z,12.99
2023-04-20T12:43:24.379Z,12.85
2023-04-20T12:45:50.802Z,13.14
2023-04-20T12:48:17.259Z,13.33
2023-04-20T12:50:43.677Z,13.12
2023-04-20T12:53:10.121Z,12.41
2023-04-20T12:55:36.500Z,12.92
2023-04-20T12:58:02.889Z,14.85
2023-04-20T13:00:29.370Z,15.38
2023-04-20T13:02:55.796Z,14.92
2023-04-20T13:05:22.270Z,14.75
2023-04-20T13:07:48.720Z,13.26
2023-04-20T13:10:15.935Z,13.00
2023-04-20T13:12:42.364Z,12.84
2023-04-20T13:15:09.347Z,12.89
2023-04-20T13:17:36.094Z,12.77
2023-04-20T13:20:02.700Z,12.37
2023-04-20T13:22:29.135Z,12.81
2023-04-20T13:24:55.575Z,12.82
2023-04-20T13:27:22.013Z,14.83
2023-04-20T13:29:48.431Z,16.35
2023-04-20T13:32:14.934Z,17.19
2023-04-20T13:34:41.364Z,17.10
2023-04-20T13:37:07.797Z,18.22
2023-04-20T13:39:34.629Z,17.67
2023-04-20T13:42:01.646Z,15.71
2023-04-20T13:44:28.104Z,15.10
2023-04-20T13:46:54.492Z,15.33
2023-04-20T13:49:23.507Z,16.03
2023-04-20T13:51:50.198Z,15.88
2023-04-20T13:54:16.989Z,15.93
2023-04-20T13:56:43.589Z,15.85
2023-04-20T13:59:10.118Z,15.20
2023-04-20T14:01:36.787Z,15.37
2023-04-20T14:04:03.658Z,15.26
2023-04-20T14:06:31.039Z,14.67
2023-04-20T14:08:57.441Z,15.90
2023-04-20T14:11:23.850Z,17.07
2023-04-20T14:13:50.295Z,16.88
2023-04-20T14:16:16.807Z,16.18
2023-04-20T14:18:43.342Z,16.57
2023-04-20T14:21:09.739Z,17.09
2023-04-20T14:23:36.231Z,14.96
2023-04-20T14:26:03.853Z,14.59
2023-04-20T14:28:32.868Z,14.53
2023-04-20T14:31:00.785Z,16.51
2023-04-20T14:33:27.801Z,15.86
2023-04-20T14:35:54.234Z,15.09
2023-04-20T14:38:20.604Z,14.47
2023-04-20T14:40:48.265Z,14.26
2023-04-20T14:43:14.648Z,13.76
2023-04-20T14:45:41.665Z,13.89
2023-04-20T14:48:08.079Z,15.08
2023-04-20T14:50:34.694Z,14.70
2023-04-20T14:53:01.137Z,14.00
2023-04-20T14:55:28.635Z,14.01
2023-04-20T14:57:56.828Z,13.91
2023-04-20T15:00:24.983Z,16.01
2023-04-20T15:02:53.452Z,16.76
2023-04-20T15:05:20.187Z,16.70
2023-04-20T15:07:50.481Z,15.51
2023-04-20T15:10:18.737Z,15.45
2023-04-20T15:12:45.845Z,14.09
2023-04-20T15:15:12.211Z,14.35
2023-04-20T15:17:38.722Z,14.03
2023-04-20T15:20:06.419Z,13.53
2023-04-20T15:22:32.845Z,13.48
2023-04-20T15:24:59.205Z,12.72
2023-04-20T15:27:25.570Z,13.19
2023-04-20T15:29:51.971Z,12.90
2023-04-20T15:32:18.434Z,12.92
2023-04-20T15:34:44.911Z,12.81
2023-04-20T15:37:11.300Z,12.91
2023-04-20T15:39:37.733Z,14.43
2023-04-20T15:42:04.206Z,14.45
2023-04-20T15:44:30.722Z,14.24
2023-04-20T15:46:58.243Z,13.40
2023-04-20T15:49:24.696Z,13.60
2023-04-20T15:51:51.113Z,13.72
2023-04-20T15:54:19.424Z,13.29
2023-04-20T15:56:46.157Z,13.39
2023-04-20T15:59:12.542Z,13.36
2023-04-20T16:01:38.962Z,14.20
2023-04-20T16:04:05.941Z,14.08
2023-04-20T16:06:32.448Z,13.79
2023-04-20T16:08:58.842Z,13.95
2023-04-20T16:11:25.233Z,13.73
2023-04-20T16:13:51.626Z,13.68
2023-04-20T16:16:18.062Z,12.97
2023-04-20T16:18:44.519Z,13.13
2023-04-20T16:21:10.873Z,12.73
2023-04-20T16:23:37.299Z,12.59
2023-04-20T16:26:03.800Z,12.67
2023-04-20T16:28:30.512Z,12.51
2023-04-20T16:30:57.553Z,12.61
2023-04-20T16:33:24.388Z,12.63
2023-04-20T16:35:51.754Z,12.16
2023-04-20T16:38:19.258Z,11.61
2023-04-20T16:40:45.670Z,11.41
2023-04-20T16:43:12.030Z,11.27
2023-04-20T16:45:38.984Z,11.16
2023-04-20T16:48:05.559Z,11.29
2023-04-20T16:50:32.253Z,11.20
2023-04-20T16:52:58.938Z,11.32
2023-04-20T16:55:26.037Z,11.39
2023-04-20T16:57:59.510Z,11.32
2023-04-20T17:00:29.987Z,11.49
2023-04-20T17:02:56.898Z,11.50
2023-04-20T17:05:24.432Z,11.49
2023-04-20T17:07:50.926Z,11.58
2023-04-20T17:10:17.504Z,10.99
2023-04-20T17:12:43.924Z,10.71
2023-04-20T17:15:10.674Z,10.65
2023-04-20T17:17:37.182Z,10.79
2023-04-20T17:20:07.172Z,10.64
2023-04-20T17:22:35.164Z,10.71
2023-04-20T17:25:01.986Z,10.65
2023-04-20T17:27:28.367Z,10.87
2023-04-20T17:29:55.972Z,10.80
2023-04-20T17:32:22.635Z,10.71
2023-04-20T17:34:51.281Z,10.84
2023-04-20T17:37:18.060Z,10.89
2023-04-20T17:39:44.471Z,10.79
2023-04-20T17:42:12.291Z,10.78
2023-04-20T17:44:39.184Z,10.92
2023-04-20T17:47:06.494Z,10.98
2023-04-20T17:49:34.717Z,10.86
2023-04-20T17:52:01.226Z,11.13
2023-04-20T17:54:27.605Z,10.90
2023-04-20T17:56:54.056Z,10.70
2023-04-20T17:59:20.676Z,10.69
2023-04-20T18:01:49.174Z,10.67
2023-04-20T18:04:16.264Z,10.66
2023-04-20T18:06:42.917Z,10.80
2023-04-20T18:09:09.872Z,10.78
2023-04-20T18:11:36.302Z,10.60
2023-04-20T18:14:02.766Z,10.38
2023-04-20T18:16:29.328Z,10.29
2023-04-20T18:18:55.788Z,10.16
2023-04-20T18:21:22.223Z,10.15
2023-04-20T18:23:48.646Z,10.11
2023-04-20T18:26:17.669Z,9.93
2023-04-20T18:28:44.882Z,10.23
2023-04-20T18:31:11.723Z,10.30
2023-04-20T18:33:38.165Z,10.30
2023-04-20T18:36:05.471Z,10.39
2023-04-20T18:38:32.454Z,10.14
2023-04-20T18:40:59.740Z,9.85
2023-04-20T18:43:26.502Z,9.52
2023-04-20T18:45:52.853Z,9.39
2023-04-20T18:48:19.184Z,9.41
2023-04-20T18:50:47.436Z,9.53
2023-04-20T18:53:14.537Z,9.48
2023-04-20T18:55:41.290Z,9.49
2023-04-20T18:58:07.734Z,9.44
2023-04-20T19:00:34.180Z,9.44
2023-04-20T19:03:00.754Z,9.48
2023-04-20T19:05:27.258Z,9.43
2023-04-20T19:07:53.631Z,9.24
2023-04-20T19:10:20.064Z,9.09
2023-04-20T19:12:46.428Z,9.24
2023-04-20T19:15:12.824Z,9.30
2023-04-20T19:17:39.350Z,9.19
2023-04-20T19:20:06.532Z,9.31
2023-04-20T19:22:33.077Z,9.49
2023-04-20T19:24:59.463Z,9.53
2023-04-20T19:27:26.461Z,9.37
2023-04-20T19:29:52.879Z,9.46
2023-04-20T19:32:19.403Z,9.33
2023-04-20T19:34:45.880Z,9.28
2023-04-20T19:37:12.299Z,9.21
2023-04-20T19:39:38.756Z,9.30
2023-04-20T19:42:05.132Z,9.29
2023-04-20T19:44:31.564Z,9.26
2023-04-20T19:46:57.963Z,9.49
2023-04-20T19:49:24.387Z,9.56
2023-04-20T19:51:50.751Z,9.42
2023-04-20T19:54:17.485Z,9.29
2023-04-20T19:56:43.883Z,9.39
2023-04-20T19:59:10.317Z,9.12
2023-04-20T20:01:36.734Z,9.41
2023-04-20T20:04:03.269Z,9.22
2023-04-20T20:06:29.838Z,9.14
2023-04-20T20:08:56.714Z,9.31
2023-04-20T20:11:25.133Z,9.30
2023-04-20T20:13:51.982Z,9.27
2023-04-20T20:16:19.098Z,9.30
2023-04-20T20:18:47.953Z,9.45
2023-04-20T20:21:14.331Z,9.52
2023-04-20T20:23:40.735Z,9.41
2023-04-20T20:26:07.161Z,9.50
2023-04-20T20:28:33.609Z,9.60
2023-04-20T20:31:00.366Z,9.48
2023-04-20T20:33:26.873Z,9.24
2023-04-20T20:35:53.321Z,9.54
2023-04-20T20:38:20.932Z,9.57
2023-04-20T20:40:50.448Z,9.58
2023-04-20T20:43:18.245Z,9.28
2023-04-20T20:45:44.770Z,9.23
2023-04-20T20:48:11.171Z,9.31
2023-04-20T20:50:37.563Z,9.26
2023-04-20T20:53:03.957Z,9.63
2023-04-20T20:55:30.636Z,9.41
2023-04-20T20:57:57.005Z,9.48
2023-04-20T21:00:23.702Z,9.45
2023-04-20T21:02:50.658Z,9.46
2023-04-20T21:05:17.115Z,9.43
2023-04-20T21:07:43.487Z,9.21
2023-04-20T21:10:11.736Z,9.34
2023-04-20T21:12:38.142Z,9.20
2023-04-20T21:15:04.845Z,9.32
2023-04-20T21:17:31.319Z,9.36
2023-04-20T21:19:57.711Z,9.19
2023-04-20T21:22:24.132Z,9.06
2023-04-20T21:24:50.569Z,9.30
2023-04-20T21:27:17.021Z,9.33
2023-04-20T21:29:43.386Z,9.36
2023-04-20T21:32:09.804Z,9.35
2023-04-20T21:34:36.294Z,9.43
2023-04-20T21:37:05.722Z,9.31
2023-04-20T21:39:32.347Z,9.23
2023-04-20T21:41:59.615Z,9.31
2023-04-20T21:44:26.239Z,9.27
2023-04-20T21:46:52.667Z,8.81
2023-04-20T21:49:19.425Z,9.10
2023-04-20T21:51:45.932Z,9.16
2023-04-20T21:54:12.403Z,9.45
2023-04-20T21:56:38.796Z,9.55
2023-04-20T21:59:05.226Z,9.47
2023-04-20T22:01:31.673Z,9.34
2023-04-20T22:03:58.253Z,9.41
2023-04-20T22:06:24.800Z,9.28
2023-04-20T22:08:51.244Z,9.25
2023-04-20T22:11:17.696Z,9.28
2023-04-20T22:13:45.187Z,9.31
2023-04-20T22:16:11.637Z,9.29
2023-04-20T22:18:38.024Z,9.39
2023-04-20T22:21:04.415Z,9.46
2023-04-20T22:23:30.823Z,9.48
2023-04-20T22:25:57.187Z,9.39
2023-04-20T22:28:23.587Z,9.33
2023-04-20T22:30:50.031Z,9.38
2023-04-20T22:33:16.569Z,9.45
2023-04-20T22:35:43.002Z,9.51
2023-04-20T22:38:09.421Z,9.48
2023-04-20T22:40:35.796Z,9.44
2023-04-20T22:43:02.181Z,9.32
2023-04-20T22:45:28.720Z,9.63
2023-04-20T22:47:55.175Z,9.22
2023-04-20T22:50:21.596Z,9.67
2023-04-20T22:52:49.514Z,9.65
2023-04-20T22:55:16.060Z,9.76
2023-04-20T22:57:42.498Z,9.65
2023-04-20T23:00:13.825Z,9.62
2023-04-20T23:02:40.856Z,9.62
2023-04-20T23:05:07.615Z,9.71
2023-04-20T23:07:34.050Z,9.61
2023-04-20T23:10:01.357Z,9.64
2023-04-20T23:12:29.352Z,9.61
2023-04-20T23:15:00.334Z,9.54
2023-04-20T23:17:27.963Z,9.49
2023-04-20T23:19:55.124Z,9.53
2023-04-20T23:22:21.500Z,9.51
2023-04-20T23:24:47.876Z,9.48
2023-04-20T23:27:14.241Z,9.56
2023-04-20T23:29:41.388Z,9.51
2023-04-20T23:32:07.811Z,9.66
2023-04-20T23:34:34.230Z,9.79
2023-04-20T23:37:00.641Z,9.83
2023-04-20T23:39:27.035Z,9.86
2023-04-20T23:41:53.509Z,9.69
2023-04-20T23:44:19.928Z,9.66
2023-04-20T23:46:46.642Z,9.71
2023-04-20T23:49:13.064Z,9.89
2023-04-20T23:51:39.485Z,9.69
2023-04-20T23:54:05.875Z,9.79
2023-04-20T23:56:32.247Z,9.69
2023-04-20T23:58:59.128Z,9.77
